createdAt,value
2023-01-19T00:01:39.621Z,-2.62
2023-01-19T00:04:07.639Z,-2.67
2023-01-19T00:06:37.000Z,-2.57
2023-01-19T00:09:05.056Z,-2.58
2023-01-19T00:11:33.046Z,-2.58
2023-01-19T00:14:01.019Z,-2.57
2023-01-19T00:16:29.169Z,-2.60
2023-01-19T00:18:57.184Z,-2.60
2023-01-19T00:21:25.319Z,-2.61
2023-01-19T00:23:54.757Z,-2.60
2023-01-19T00:26:23.093Z,-2.60
2023-01-19T00:28:52.971Z,-2.64
2023-01-19T00:31:21.622Z,-2.67
2023-01-19T00:33:52.535Z,-2.65
2023-01-19T00:36:20.938Z,-2.62
2023-01-19T00:38:48.923Z,-2.60
2023-01-19T00:41:18.623Z,-2.58
2023-01-19T00:43:45.665Z,-2.54
2023-01-19T00:46:13.719Z,-2.53
2023-01-19T00:48:41.758Z,-2.50
2023-01-19T00:51:09.737Z,-2.49
2023-01-19T00:53:37.727Z,-2.51
2023-01-19T00:56:06.426Z,-2.58
2023-01-19T00:58:35.761Z,-2.57
2023-01-19T01:01:04.843Z,-2.65
2023-01-19T01:03:33.376Z,-2.65
2023-01-19T01:06:01.315Z,-2.67
2023-01-19T01:08:29.806Z,-2.71
2023-01-19T01:10:58.155Z,-2.72
2023-01-19T01:13:27.874Z,-2.77
2023-01-19T01:15:57.936Z,-2.75
2023-01-19T01:18:26.249Z,-2.77
2023-01-19T01:20:56.206Z,-2.79
2023-01-19T01:23:24.356Z,-2.72
2023-01-19T01:25:52.336Z,-2.68
2023-01-19T01:28:20.346Z,-2.67
2023-01-19T01:30:48.366Z,-2.68
2023-01-19T01:33:41.394Z,-2.67
2023-01-19T01:36:06.925Z,-2.65
2023-01-19T01:38:34.887Z,-2.68
2023-01-19T01:41:02.909Z,-2.64
2023-01-19T01:43:44.777Z,-2.61
2023-01-19T01:46:15.375Z,-2.65
2023-01-19T01:48:47.479Z,-2.65
2023-01-19T01:51:25.086Z,-2.64
2023-01-19T01:53:57.555Z,-2.67
2023-01-19T01:56:28.242Z,-2.67
2023-01-19T01:58:56.288Z,-2.72
2023-01-19T02:01:41.964Z,-2.72
2023-01-19T02:04:11.715Z,-2.68
2023-01-19T02:06:57.524Z,-2.65
2023-01-19T02:09:44.197Z,-2.67
2023-01-19T02:12:30.242Z,-2.67
2023-01-19T02:14:58.225Z,-2.71
2023-01-19T02:17:26.349Z,-2.71
2023-01-19T02:19:55.691Z,-2.72
2023-01-19T02:22:27.948Z,-2.81
2023-01-19T02:24:58.876Z,-2.87
2023-01-19T02:27:27.067Z,-2.93
2023-01-19T02:29:55.084Z,-3.02
2023-01-19T02:32:23.370Z,-3.08
2023-01-19T02:34:51.940Z,-3.08
2023-01-19T02:37:20.492Z,-3.13
2023-01-19T02:39:51.957Z,-3.13
2023-01-19T02:42:24.534Z,-3.20
2023-01-19T02:44:54.406Z,-3.30
2023-01-19T02:47:22.951Z,-3.33
2023-01-19T02:49:57.790Z,-3.37
2023-01-19T02:52:26.264Z,-3.40
2023-01-19T02:55:02.510Z,-3.46
2023-01-19T02:57:39.195Z,-3.47
2023-01-19T03:00:18.712Z,-3.46
2023-01-19T03:02:55.888Z,-3.42
2023-01-19T03:05:36.039Z,-3.39
2023-01-19T03:08:09.371Z,-3.32
2023-01-19T03:10:44.213Z,-3.24
2023-01-19T03:13:16.158Z,-3.24
2023-01-19T03:15:45.376Z,-3.24
2023-01-19T03:18:14.720Z,-3.24
2023-01-19T03:20:43.101Z,-3.27
2023-01-19T03:23:12.721Z,-3.24
2023-01-19T03:25:44.070Z,-3.23
2023-01-19T03:28:15.363Z,-3.26
2023-01-19T03:30:46.735Z,-3.23
2023-01-19T03:33:17.559Z,-3.26
2023-01-19T03:35:48.843Z,-3.24
2023-01-19T03:38:18.349Z,-3.26
2023-01-19T03:40:47.464Z,-3.26
2023-01-19T03:43:18.335Z,-3.29
2023-01-19T03:45:46.783Z,-3.32
2023-01-19T03:48:14.915Z,-3.33
2023-01-19T03:50:42.917Z,-3.32
2023-01-19T03:53:12.772Z,-3.26
2023-01-19T03:55:42.233Z,-3.27
2023-01-19T03:58:10.741Z,-3.29
2023-01-19T04:00:43.438Z,-3.27
2023-01-19T04:03:14.510Z,-3.20
2023-01-19T04:05:42.817Z,-3.19
2023-01-19T04:08:11.541Z,-3.13
2023-01-19T04:10:39.739Z,-3.17
2023-01-19T04:13:07.753Z,-3.22
2023-01-19T04:15:36.057Z,-3.20
2023-01-19T04:18:07.084Z,-3.19
2023-01-19T04:20:35.207Z,-3.16
2023-01-19T04:23:03.852Z,-3.15
2023-01-19T04:25:32.121Z,-3.12
2023-01-19T04:28:00.304Z,-3.09
2023-01-19T04:30:29.065Z,-3.12
2023-01-19T04:32:57.101Z,-3.16
2023-01-19T04:35:26.435Z,-3.22
2023-01-19T04:37:54.463Z,-3.23
2023-01-19T04:40:22.476Z,-3.32
2023-01-19T04:42:50.975Z,-3.29
2023-01-19T04:45:18.980Z,-3.35
2023-01-19T04:47:46.990Z,-3.33
2023-01-19T04:50:15.184Z,-3.32
2023-01-19T04:52:44.472Z,-3.32
2023-01-19T04:55:12.799Z,-3.33
2023-01-19T04:57:40.770Z,-3.36
2023-01-19T05:00:10.416Z,-3.33
2023-01-19T05:02:38.515Z,-3.35
2023-01-19T05:05:06.826Z,-3.30
2023-01-19T05:07:35.269Z,-3.30
2023-01-19T05:10:05.135Z,-3.32
2023-01-19T05:12:33.154Z,-3.32
2023-01-19T05:15:01.542Z,-3.33
2023-01-19T05:17:30.229Z,-3.32
2023-01-19T05:19:58.288Z,-3.30
2023-01-19T05:22:26.322Z,-3.23
2023-01-19T05:24:54.415Z,-3.27
2023-01-19T05:27:23.815Z,-3.30
2023-01-19T05:29:52.059Z,-3.27
2023-01-19T05:32:20.084Z,-3.30
2023-01-19T05:34:48.173Z,-3.33
2023-01-19T05:37:16.467Z,-3.37
2023-01-19T05:39:44.461Z,-3.39
2023-01-19T05:42:12.670Z,-3.37
2023-01-19T05:44:42.137Z,-3.40
2023-01-19T05:47:10.103Z,-3.43
2023-01-19T05:49:38.181Z,-3.47
2023-01-19T05:52:06.185Z,-3.44
2023-01-19T05:54:34.252Z,-3.44
2023-01-19T05:57:03.015Z,-3.46
2023-01-19T05:59:30.999Z,-3.47
2023-01-19T06:02:01.093Z,-3.46
2023-01-19T06:04:29.261Z,-2.61
2023-01-19T06:06:57.279Z,-1.81
2023-01-19T06:09:25.527Z,-1.37
2023-01-19T06:11:56.502Z,-1.04
2023-01-19T06:14:25.130Z,-1.02
2023-01-19T06:16:53.496Z,-0.86
2023-01-19T06:19:23.074Z,-0.78
2023-01-19T06:21:52.600Z,-0.95
2023-01-19T06:24:20.686Z,-0.73
2023-01-19T06:26:48.684Z,-0.66
2023-01-19T06:29:17.180Z,-0.62
2023-01-19T06:31:45.252Z,-0.68
2023-01-19T06:34:13.295Z,-0.73
2023-01-19T06:36:42.752Z,-0.83
2023-01-19T06:39:11.077Z,-0.89
2023-01-19T06:41:40.017Z,-1.50
2023-01-19T06:44:08.161Z,-2.02
2023-01-19T06:46:36.258Z,-2.36
2023-01-19T06:49:04.352Z,-2.61
2023-01-19T06:51:32.314Z,-2.78
2023-01-19T06:54:01.888Z,-2.92
2023-01-19T06:56:30.201Z,-3.02
2023-01-19T06:58:58.143Z,-3.12
2023-01-19T07:01:26.881Z,-3.15
2023-01-19T07:03:55.016Z,-3.19
2023-01-19T07:06:23.008Z,-3.22
2023-01-19T07:08:51.044Z,-3.20
2023-01-19T07:11:26.290Z,-3.20
2023-01-19T07:13:58.749Z,-3.19
2023-01-19T07:16:26.776Z,-3.24
2023-01-19T07:18:54.848Z,-3.26
2023-01-19T07:21:22.989Z,-3.27
2023-01-19T07:23:51.485Z,-3.24
2023-01-19T07:26:21.549Z,-3.20
2023-01-19T07:28:50.182Z,-3.17
2023-01-19T07:31:19.019Z,-3.13
2023-01-19T07:33:47.931Z,-3.08
2023-01-19T07:36:16.042Z,-3.06
2023-01-19T07:38:44.196Z,-3.00
2023-01-19T07:41:12.381Z,-2.96
2023-01-19T07:43:41.980Z,-2.93
2023-01-19T07:46:10.504Z,-2.85
2023-01-19T07:48:38.514Z,-2.75
2023-01-19T07:54:59.232Z,-2.56
2023-01-19T07:57:46.734Z,-2.44
2023-01-19T08:00:35.755Z,-2.32
2023-01-19T08:03:05.290Z,-2.25
2023-01-19T08:05:36.273Z,-2.17
2023-01-19T08:08:05.616Z,-2.12
2023-01-19T08:10:34.697Z,-2.02
2023-01-19T08:13:03.055Z,-1.93
2023-01-19T08:15:32.316Z,-1.82
2023-01-19T08:18:05.879Z,-1.75
2023-01-19T08:20:34.216Z,-1.68
2023-01-19T08:23:04.196Z,-1.64
2023-01-19T08:31:34.829Z,-1.31
2023-01-19T08:34:04.493Z,-1.21
2023-01-19T08:36:34.636Z,-1.16
2023-01-19T08:39:02.712Z,-1.13
2023-01-19T08:41:30.697Z,-1.03
2023-01-19T08:43:58.965Z,-0.92
2023-01-19T08:46:27.346Z,-0.82
2023-01-19T08:48:57.109Z,-0.78
2023-01-19T08:51:26.972Z,-0.75
2023-01-19T08:53:57.054Z,-0.64
2023-01-19T08:56:25.359Z,-0.50
2023-01-19T08:59:07.594Z,-0.42
2023-01-19T09:01:37.049Z,-0.33
2023-01-19T09:04:05.565Z,-0.30
2023-01-19T09:06:35.130Z,-0.18
2023-01-19T09:09:05.966Z,-0.17
2023-01-19T09:11:35.003Z,-0.15
2023-01-19T09:14:03.496Z,-0.09
2023-01-19T09:16:31.981Z,-0.06
2023-01-19T09:19:00.033Z,0.03
2023-01-19T09:21:28.910Z,0.13
2023-01-19T09:23:58.430Z,0.18
2023-01-19T09:26:27.075Z,0.17
2023-01-19T09:28:55.077Z,0.28
2023-01-19T09:31:23.710Z,0.33
2023-01-19T09:33:52.025Z,0.31
2023-01-19T09:36:20.019Z,0.40
2023-01-19T09:38:48.126Z,0.46
2023-01-19T09:41:21.851Z,0.52
2023-01-19T09:43:53.418Z,0.62
2023-01-19T09:46:24.479Z,0.80
2023-01-19T09:48:56.790Z,0.90
2023-01-19T09:51:27.927Z,0.90
2023-01-19T09:54:03.545Z,0.97
2023-01-19T09:56:33.224Z,0.97
2023-01-19T09:59:02.212Z,0.96
2023-01-19T10:01:37.598Z,0.97
2023-01-19T10:04:27.647Z,1.07
2023-01-19T10:07:01.028Z,1.07
2023-01-19T10:09:33.624Z,1.16
2023-01-19T10:12:09.610Z,1.26
2023-01-19T10:14:43.093Z,1.44
2023-01-19T10:17:20.195Z,1.31
2023-01-19T10:19:53.460Z,1.31
2023-01-19T10:22:23.153Z,1.38
2023-01-19T10:24:53.869Z,1.51
2023-01-19T10:27:25.728Z,1.64
2023-01-19T10:29:53.836Z,1.72
2023-01-19T10:32:24.487Z,1.78
2023-01-19T10:34:54.666Z,1.89
2023-01-19T10:37:30.476Z,1.95
2023-01-19T10:40:02.070Z,1.95
2023-01-19T10:42:31.798Z,1.98
2023-01-19T10:45:00.531Z,1.95
2023-01-19T10:47:33.683Z,1.85
2023-01-19T10:50:08.582Z,1.85
2023-01-19T10:52:39.899Z,1.93
2023-01-19T10:55:09.778Z,2.02
2023-01-19T10:57:43.530Z,2.14
2023-01-19T11:00:31.767Z,2.37
2023-01-19T11:03:00.580Z,2.47
2023-01-19T11:05:31.055Z,2.47
2023-01-19T11:07:59.658Z,2.54
2023-01-19T11:10:29.664Z,2.61
2023-01-19T11:13:02.502Z,2.70
2023-01-19T11:15:35.989Z,2.75
2023-01-19T11:18:04.640Z,2.71
2023-01-19T11:20:43.993Z,2.64
2023-01-19T11:23:22.205Z,2.58
2023-01-19T11:25:52.570Z,2.58
2023-01-19T11:28:27.543Z,2.64
2023-01-19T11:30:58.331Z,2.71
2023-01-19T11:33:28.578Z,2.81
2023-01-19T11:36:05.346Z,2.91
2023-01-19T11:38:33.745Z,3.02
2023-01-19T11:41:04.252Z,3.06
2023-01-19T11:43:48.352Z,3.03
2023-01-19T11:46:17.564Z,3.03
2023-01-19T11:48:49.987Z,3.02
2023-01-19T11:51:20.700Z,3.01
2023-01-19T11:53:54.556Z,3.09
2023-01-19T11:56:25.038Z,3.16
2023-01-19T11:58:54.840Z,3.15
2023-01-19T12:01:29.919Z,3.13
2023-01-19T12:04:00.312Z,3.13
2023-01-19T12:06:32.569Z,3.06
2023-01-19T12:09:01.264Z,3.06
2023-01-19T12:11:33.890Z,3.06
2023-01-19T12:14:04.372Z,3.03
2023-01-19T12:16:34.026Z,3.08
2023-01-19T12:19:05.615Z,3.12
2023-01-19T12:21:33.668Z,3.10
2023-01-19T12:24:08.544Z,3.08
2023-01-19T12:26:38.451Z,3.09
2023-01-19T12:29:13.186Z,3.12
2023-01-19T12:31:43.739Z,3.16
2023-01-19T12:34:38.749Z,3.13
2023-01-19T12:37:08.490Z,3.16
2023-01-19T12:39:49.419Z,3.09
2023-01-19T12:42:21.268Z,3.10
2023-01-19T12:44:54.720Z,3.10
2023-01-19T12:47:27.348Z,3.13
2023-01-19T12:49:59.672Z,3.13
2023-01-19T12:52:34.583Z,3.01
2023-01-19T12:55:08.079Z,2.85
2023-01-19T12:57:39.240Z,2.68
2023-01-19T13:00:36.712Z,2.61
2023-01-19T13:03:35.171Z,2.58
2023-01-19T13:06:03.677Z,2.51
2023-01-19T13:08:57.497Z,2.50
2023-01-19T13:11:30.316Z,2.47
2023-01-19T13:14:36.126Z,2.44
2023-01-19T13:17:24.130Z,2.45
2023-01-19T13:19:56.990Z,2.45
2023-01-19T13:22:50.645Z,2.50
2023-01-19T13:25:29.107Z,2.47
2023-01-19T13:27:57.475Z,2.47
2023-01-19T13:30:28.319Z,2.47
2023-01-19T13:33:06.532Z,2.44
2023-01-19T13:35:57.325Z,2.45
2023-01-19T13:38:28.602Z,2.41
2023-01-19T13:41:06.554Z,2.40
2023-01-19T13:43:38.261Z,2.38
2023-01-19T13:46:09.542Z,2.40
2023-01-19T13:48:39.371Z,2.41
2023-01-19T13:51:08.915Z,2.38
2023-01-19T13:53:37.364Z,2.44
2023-01-19T13:56:25.634Z,2.43
2023-01-19T13:59:12.004Z,2.47
2023-01-19T14:01:45.001Z,2.48
2023-01-19T14:04:34.318Z,2.48
2023-01-19T14:07:03.633Z,2.48
2023-01-19T14:09:33.922Z,2.48
2023-01-19T14:12:14.586Z,2.45
2023-01-19T14:14:43.488Z,2.47
2023-01-19T14:17:22.839Z,2.45
2023-01-19T14:19:53.910Z,2.45
2023-01-19T14:22:22.234Z,2.48
2023-01-19T14:24:50.242Z,2.50
2023-01-19T14:27:21.881Z,2.44
2023-01-19T14:29:53.744Z,2.43
2023-01-19T14:32:23.734Z,2.40
2023-01-19T14:34:54.717Z,2.37
2023-01-19T14:37:26.036Z,2.36
2023-01-19T14:39:58.207Z,2.31
2023-01-19T14:42:30.520Z,2.34
2023-01-19T14:45:01.473Z,2.33
2023-01-19T14:47:38.106Z,2.27
2023-01-19T14:50:26.098Z,2.30
2023-01-19T14:52:57.389Z,2.23
2023-01-19T14:55:30.421Z,2.24
2023-01-19T14:57:59.452Z,2.22
2023-01-19T15:00:31.085Z,2.20
2023-01-19T15:03:02.615Z,2.16
2023-01-19T15:05:36.371Z,2.14
2023-01-19T15:08:07.375Z,2.13
2023-01-19T15:10:36.552Z,2.10
2023-01-19T15:13:06.362Z,2.09
2023-01-19T15:15:35.834Z,2.05
2023-01-19T15:18:05.260Z,1.99
2023-01-19T15:20:34.662Z,1.96
2023-01-19T15:23:06.964Z,1.92
2023-01-19T15:25:36.199Z,1.87
2023-01-19T15:28:11.542Z,1.82
2023-01-19T15:30:40.112Z,1.73
2023-01-19T15:33:11.787Z,1.69
2023-01-19T15:35:41.703Z,1.61
2023-01-19T15:38:10.079Z,1.56
2023-01-19T15:40:38.902Z,1.54
2023-01-19T15:43:07.183Z,1.51
2023-01-19T15:45:37.224Z,1.48
2023-01-19T15:48:06.856Z,1.45
2023-01-19T15:50:37.780Z,1.43
2023-01-19T15:53:07.649Z,1.37
2023-01-19T15:55:38.570Z,1.34
2023-01-19T15:58:07.320Z,1.30
2023-01-19T16:00:39.113Z,1.30
2023-01-19T16:03:08.829Z,1.28
2023-01-19T16:05:42.902Z,1.24
2023-01-19T16:08:31.888Z,1.26
2023-01-19T16:11:05.680Z,1.22
2023-01-19T16:13:34.186Z,1.20
2023-01-19T16:16:03.844Z,1.20
2023-01-19T16:18:32.783Z,1.19
2023-01-19T16:21:01.622Z,1.13
2023-01-19T16:23:32.444Z,1.13
2023-01-19T16:26:04.905Z,1.13
2023-01-19T16:28:34.443Z,1.13
2023-01-19T16:31:06.008Z,1.13
2023-01-19T16:33:34.123Z,1.12
2023-01-19T16:36:18.862Z,1.12
2023-01-19T16:38:50.518Z,1.12
2023-01-19T16:41:19.496Z,1.12
2023-01-19T16:43:52.799Z,1.12
2023-01-19T16:46:22.733Z,1.13
2023-01-19T16:48:51.816Z,1.12
2023-01-19T16:51:20.597Z,1.13
2023-01-19T16:53:51.502Z,1.13
2023-01-19T16:56:20.296Z,1.14
2023-01-19T16:58:48.413Z,1.16
2023-01-19T17:01:20.146Z,1.16
2023-01-19T17:03:49.208Z,1.10
2023-01-19T17:06:18.531Z,1.16
2023-01-19T17:08:46.946Z,1.16
2023-01-19T17:11:21.651Z,1.19
2023-01-19T17:13:50.561Z,1.19
2023-01-19T17:16:19.008Z,1.19
2023-01-19T17:18:47.771Z,1.20
2023-01-19T17:21:19.284Z,1.19
2023-01-19T17:23:49.294Z,1.16
2023-01-19T17:26:19.679Z,1.16
2023-01-19T17:28:48.313Z,1.19
2023-01-19T17:31:18.175Z,1.19
2023-01-19T17:33:47.476Z,1.19
2023-01-19T17:36:19.337Z,1.23
2023-01-19T17:38:48.473Z,1.23
2023-01-19T17:41:19.313Z,1.23
2023-01-19T17:43:48.111Z,1.27
2023-01-19T17:46:16.220Z,1.26
2023-01-19T17:48:46.296Z,1.26
2023-01-19T17:51:15.457Z,1.27
2023-01-19T17:53:45.252Z,1.24
2023-01-19T17:56:16.675Z,1.24
2023-01-19T17:58:46.363Z,1.24
2023-01-19T18:01:18.668Z,1.22
2023-01-19T18:03:47.447Z,1.19
2023-01-19T18:06:16.099Z,1.17
2023-01-19T18:08:46.202Z,1.17
2023-01-19T18:11:14.959Z,1.17
2023-01-19T18:13:44.893Z,1.19
2023-01-19T18:16:16.057Z,1.20
2023-01-19T18:18:45.091Z,1.23
2023-01-19T18:21:15.681Z,1.26
2023-01-19T18:23:46.010Z,1.26
2023-01-19T18:26:17.954Z,1.27
2023-01-19T18:28:46.451Z,1.27
2023-01-19T18:31:18.168Z,1.28
2023-01-19T18:33:46.526Z,1.31
2023-01-19T18:36:15.013Z,1.34
2023-01-19T18:38:43.252Z,1.35
2023-01-19T18:41:12.845Z,1.35
2023-01-19T18:43:45.060Z,1.37
2023-01-19T18:46:14.125Z,1.37
2023-01-19T18:48:43.618Z,1.40
2023-01-19T18:51:17.716Z,1.45
2023-01-19T18:53:48.627Z,1.51
2023-01-19T18:56:17.329Z,1.51
2023-01-19T18:58:45.983Z,1.51
2023-01-19T19:01:20.172Z,1.51
2023-01-19T19:03:50.545Z,1.52
2023-01-19T19:06:20.867Z,1.51
2023-01-19T19:08:50.273Z,1.50
2023-01-19T19:11:19.004Z,1.50
2023-01-19T19:13:47.262Z,1.48
2023-01-19T19:16:15.875Z,1.50
2023-01-19T19:18:44.574Z,1.48
2023-01-19T19:21:14.333Z,1.47
2023-01-19T19:23:43.157Z,1.45
2023-01-19T19:26:15.800Z,1.45
2023-01-19T19:28:45.684Z,1.47
2023-01-19T19:31:15.571Z,1.47
2023-01-19T19:33:44.445Z,1.45
2023-01-19T19:36:13.848Z,1.47
2023-01-19T19:38:44.395Z,1.47
2023-01-19T19:41:13.607Z,1.45
2023-01-19T19:43:41.823Z,1.51
2023-01-19T19:46:12.367Z,1.50
2023-01-19T19:48:41.451Z,1.50
2023-01-19T19:51:17.943Z,1.50
2023-01-19T19:53:51.320Z,1.47
2023-01-19T19:56:21.966Z,1.48
2023-01-19T19:58:51.411Z,1.50
2023-01-19T20:01:21.249Z,1.48
2023-01-19T20:03:50.216Z,1.48
2023-01-19T20:06:22.639Z,1.50
2023-01-19T20:08:53.840Z,1.51
2023-01-19T20:11:24.352Z,1.50
2023-01-19T20:13:53.109Z,1.51
2023-01-19T20:16:23.232Z,1.51
2023-01-19T20:18:55.394Z,1.52
2023-01-19T20:21:24.629Z,1.52
2023-01-19T20:23:55.398Z,1.50
2023-01-19T20:26:26.499Z,1.48
2023-01-19T20:28:55.225Z,1.47
2023-01-19T20:31:29.657Z,1.48
2023-01-19T20:34:00.460Z,1.43
2023-01-19T20:36:29.958Z,1.44
2023-01-19T20:39:10.132Z,1.44
2023-01-19T20:41:45.811Z,1.45
2023-01-19T20:44:16.772Z,1.45
2023-01-19T20:46:46.453Z,1.45
2023-01-19T20:49:14.926Z,1.47
2023-01-19T20:51:45.297Z,1.48
2023-01-19T20:54:17.306Z,1.45
2023-01-19T20:56:46.551Z,1.45
2023-01-19T20:59:19.204Z,1.45
2023-01-19T21:01:50.029Z,1.47
2023-01-19T21:04:18.438Z,1.48
2023-01-19T21:06:47.303Z,1.48
2023-01-19T21:09:18.675Z,1.48
2023-01-19T21:11:47.269Z,1.48
2023-01-19T21:14:16.639Z,1.48
2023-01-19T21:16:44.910Z,1.50
2023-01-19T21:19:13.504Z,1.51
2023-01-19T21:21:41.551Z,1.50
2023-01-19T21:24:11.733Z,1.48
2023-01-19T21:26:41.920Z,1.47
2023-01-19T21:29:13.493Z,1.43
2023-01-19T21:31:41.931Z,1.45
2023-01-19T21:34:11.465Z,1.47
2023-01-19T21:36:47.413Z,1.45
2023-01-19T21:39:17.347Z,1.45
2023-01-19T21:41:47.022Z,1.44
2023-01-19T21:44:15.674Z,1.44
2023-01-19T21:46:44.223Z,1.43
2023-01-19T21:49:16.056Z,1.43
2023-01-19T21:51:47.884Z,1.44
2023-01-19T21:54:17.840Z,1.43
2023-01-19T21:56:47.647Z,1.41
2023-01-19T21:59:16.616Z,1.40
2023-01-19T22:01:46.730Z,1.40
2023-01-19T22:04:14.948Z,1.40
2023-01-19T22:06:43.924Z,1.40
2023-01-19T22:09:12.007Z,1.38
2023-01-19T22:11:40.390Z,1.37
2023-01-19T22:14:11.404Z,1.37
2023-01-19T22:16:39.424Z,1.35
2023-01-19T22:19:08.544Z,1.35
2023-01-19T22:21:36.812Z,1.34
2023-01-19T22:24:06.115Z,1.31
2023-01-19T22:26:34.969Z,1.35
2023-01-19T22:29:07.032Z,1.33
2023-01-19T22:31:36.785Z,1.31
2023-01-19T22:34:05.089Z,1.30
2023-01-19T22:36:35.235Z,1.30
2023-01-19T22:39:05.483Z,1.33
2023-01-19T22:41:38.304Z,1.33
2023-01-19T22:44:08.656Z,1.31
2023-01-19T22:46:39.060Z,1.37
2023-01-19T22:49:10.030Z,1.34
2023-01-19T22:51:40.387Z,1.35
2023-01-19T22:54:09.238Z,1.37
2023-01-19T22:56:39.033Z,1.40
2023-01-19T22:59:08.005Z,1.37
2023-01-19T23:01:38.940Z,1.41
2023-01-19T23:04:08.633Z,1.40
2023-01-19T23:06:37.816Z,1.41
2023-01-19T23:09:09.084Z,1.44
2023-01-19T23:11:39.376Z,1.45
2023-01-19T23:14:09.740Z,1.45
2023-01-19T23:16:40.167Z,1.45
2023-01-19T23:19:08.349Z,1.45
2023-01-19T23:21:37.114Z,1.47
2023-01-19T23:24:06.008Z,1.45
2023-01-19T23:26:38.207Z,1.45
2023-01-19T23:29:08.378Z,1.47
2023-01-19T23:31:38.484Z,1.47
2023-01-19T23:34:09.838Z,1.50
2023-01-19T23:36:42.019Z,1.50
2023-01-19T23:39:15.146Z,1.52
2023-01-19T23:41:43.479Z,1.51
2023-01-19T23:44:12.408Z,1.52
2023-01-19T23:46:40.788Z,1.52
2023-01-19T23:49:10.257Z,1.54
2023-01-19T23:51:38.980Z,1.54
2023-01-19T23:54:07.305Z,1.54
2023-01-19T23:56:38.413Z,1.52
2023-01-19T23:59:09.553Z,1.54
